Saratoga, WY (82331)

11:55 PM MDT on July 30, 2015 (GMT -0600)
Shively | | Change Station
CLOSE
Current Station
Airport
Location: Saratoga Shively Field Airpor,
Elevation: 7014 ft
Nearby Weather Stations

Elev 7014 ft 41.44 °N, 106.83 °W | Updated 20 minutes ago

Clear
Clear
54 °F
Feels Like 54 °F
N
10
Wind Variable Wind from South

Today
High -- | Low -- °F
--% Chance of Precip.
Yesterday
High -- | Low -- °F
Precip. -- in
5:59 AM 8:26 PM
Full, 100% visible
Pressure 30.43 in
Visibility 10.0 miles
Clouds Clear
Dew Point 23 °F
Humidity 30%
Rainfall 0.00 in
Snow Depth Not available.
UV 0 out of 12
Pollen 6.40 out of 12
Air Quality Not available.
Flu Activity Not available.
METAR KSAA 310535Z AUTO 17009KT 10SM CLR 12/M05 A3043 RMK AO2

More Conditions Fewer Conditions

Pressure 30.43 in
Visibility 10.0 miles
Clouds Clear
Dew Point 23 °F
Humidity 30%
Rainfall 0.00 in
Snow Depth Not available.
UV 0 out of 12
Pollen 6.40 out of 12
Air Quality Not available.
Flu Activity Not available.
METAR KSAA 310535Z AUTO 17009KT 10SM CLR 12/M05 A3043 RMK AO2

More Conditions Fewer Conditions

10-Day Weather Forecast

×

Almanac

Astronomy

Jul. 30, 2015 Rise Set
Actual Time
Civil Twilight
Nautical Twilight
Astronomical Twilight
Moon
Length of Visible Light
Length of Day
Tomorrow will be .
, % of the Moon is Illuminated

Today's Extremes

State Highs State Lows

Community

WunderPhotos

Upload Photos

1,842,632 photos uploaded!

WunderBlogs® & News

Nearby

Air Quality

  Air Quality AQ Index Pollutant
Not available.

Snow Depth

Station Depth Elevation

Earthquake Activity

City Distance Mag. Time & Date
Minimum magnitude displayed is 2.5.

Coastal Water Temperatures

Place Temperature

Stations

Nearby Weather Stations

Station Location Temp. Windchill Dew Point Humidity Wind Precip. Elev Updated Type